Last 30 Days

Robertsbridge Vineyards

Daily Data | America/Los_Angeles
as of 9/4/26 7:37 PM PDT
Date Daily Max Temp (°F) Time of Max Temp Daily Min Temp (°F) Time of Min Temp Dew Pt (°F) Daily Max RH (%) Daily Min RH (%) Hrs <= 32F (hrs) Hrs <= 28F (hrs) Hrs 70-85F (hrs) Hrs > 95F (hrs) Powdery Mildew Stress (pts) GDDs (DL) GDDs (Mx/Mn) Chilling <=45F (hrs) MinBV Day (V)
9/3/26 70.6 1358 46.8 0059 52.2 95 44 0.0 0.0 0.11 0.00 0 9.6 8.7 0.0 12.6
9/2/26 73.5 1630 50.5 0101 49.3 95 39 0.0 0.0 2.25 0.00 0 10.1 12.0 0.0 12.6
9/1/26 73.5 1451 44.8 0233 46.9 93 35 0.0 0.0 0.78 0.00 10 8.5 9.1 0.2 12.6
8/31/26 84.5 1419 46.6 0659 46.5 91 25 0.0 0.0 9.68 0.00 20 15.0 15.5 0.0 12.6
8/30/26 92.0 1552 46.0 0714 43.2 86 12 0.0 0.0 2.96 0.00 0 17.5 19.0 0.0 12.6
8/29/26 87.6 1435 39.7 0625 39.3 78 15 0.0 0.0 3.79 0.00 10 15.0 13.6 6.3 12.5
8/28/26 87.1 1558 44.8 0056 33.2 65 4 0.0 0.0 10.02 0.00 20 16.2 15.9 0.1 12.6
8/27/26 95.5 1639 50.9 0652 44.4 86 8 0.0 0.0 2.63 0.18 0 21.7 23.2 0.0 12.6
8/26/26 95.9 1448 43.4 0635 39.6 80 8 0.0 0.0 2.57 0.34 0 19.9 19.6 1.0 12.6
8/25/26 93.6 1538 48.2 0645 40.8 76 9 0.0 0.0 3.31 0.00 0 19.2 20.9 0.0 12.5
8/24/26 95.2 1612 49.2 0645 42.4 78 8 0.0 0.0 2.58 0.04 0 20.6 22.2 0.0 12.6
8/23/26 96.9 1632 49.1 0711 43.8 82 13 0.0 0.0 1.91 1.52 0 22.1 23.0 0.0 12.6
8/22/26 92.4 1540 44.7 0632 40.8 87 12 0.0 0.0 2.87 0.00 0 18.7 18.6 0.6 12.5
8/21/26 92.8 1405 50.6 0052 44.2 78 10 0.0 0.0 4.08 0.00 0 20.7 21.7 0.0 12.6
8/20/26 97.0 1556 53.5 0607 44.3 75 8 0.0 0.0 2.34 1.51 10 23.0 25.2 0.0 12.6
8/19/26 98.4 1449 56.4 0658 49.4 76 19 0.0 0.0 1.46 4.18 20 26.0 27.4 0.0 12.6
8/18/26 97.5 1541 54.0 0314 47.3 71 14 0.0 0.0 2.63 2.09 30 24.0 25.8 0.0 12.6
8/17/26 93.6 1657 56.6 0438 46.4 75 17 0.0 0.0 2.95 0.00 40 23.2 25.1 0.0 12.6
8/16/26 92.3 1504 48.9 0655 49.2 94 21 0.0 0.0 3.35 0.00 50 20.0 20.6 0.0 12.6
8/15/26 86.1 1402 47.8 0633 50.2 100 20 0.0 0.0 10.27 0.00 60 16.6 16.9 0.0 12.6
8/14/26 82.6 1534 49.2 0615 52.2 100 30 0.0 0.0 9.38 0.00 40 15.2 15.9 0.0 12.6
8/13/26 85.1 1341 51.3 0623 52.4 91 30 0.0 0.0 10.30 0.00 20 16.9 18.2 0.0 12.6
8/12/26 93.4 1537 52.8 0628 50.9 88 17 0.0 0.0 2.49 0.00 0 22.4 23.1 0.0 12.6
8/11/26 95.7 1448 54.7 0645 51.5 83 19 0.0 0.0 2.10 0.36 0 24.5 25.2 0.0 12.6
8/10/26 100.5 1326 53.9 0436 47.5 72 15 0.0 0.0 2.08 5.18 0 26.2 27.2 0.0 12.5
8/9/26 105.7 1513 55.6 0454 41.8 63 7 0.0 0.0 1.58 7.12 0 28.2 30.6 0.0 12.5
8/8/26 108.2 1504 55.8 0616 38.0 58 3 0.0 0.0 1.82 7.77 0 30.2 32.0 0.0 12.5
8/7/26 105.0 1615 55.2 0637 45.6 69 8 0.0 0.0 2.17 7.00 0 28.7 30.1 0.0 12.6
8/6/26 101.4 1554 53.9 0621 46.7 84 6 0.0 0.0 2.38 5.62 0 26.4 27.6 0.0 12.6
8/5/26 102.1 1434 55.8 0612 46.5 77 12 0.0 0.0 1.92 6.78 0 27.4 29.0 0.0 12.6
Max 108.2 - 56.6 - 52.4 100 44 0.0 0.0 10.30 7.77 - 30.2 32.0 6.3 12.6
Avg - - - - 45.5 - - 0.0 0.0 3.63 1.66 - 20.4 21.4 0.3 -
Min 70.6 - 39.7 - 33.2 58 3 0.0 0.0 0.11 0.00 - 8.5 8.7 0.0 12.5
Total - - - - - - - 0.0 0.0 108.76 49.66 - 613.4 643.3 8.2 -